X  Kiinni Metar Aviation säätiedot     EFPO Pori Airport
Lämpötila
10°C Lämpötila
5°C Kastepiste
71% Kosteus



Tuuli
2 M/S
5 MPH
8 KM/T
4 KTS



90°
Itä
Nykyiset olosuhteet

Kirkas Kirkas
Paine 1021.92 (hPa) - 30.18 (inHg)
Näkyvyys 6.2 (maili) - 10 (km)
Lentokenttä
Lentokentän koodi EFPO

Sijainti: Pori Airport
Etäisyys: 40 (km)

Metar:
EFPO 160950Z AUTO 09004KT 050V120 CAVOK 10/05 Q1022

Aika: 09-16-2021 12:50 EEST